createdAt,value
2023-01-01T00:01:30.320Z,7.57
2023-01-01T00:04:02.393Z,7.60
2023-01-01T00:06:33.165Z,7.20
2023-01-01T00:09:21.768Z,7.37
2023-01-01T00:11:52.461Z,7.23
2023-01-01T00:14:23.422Z,6.40
2023-01-01T00:16:55.485Z,8.47
2023-01-01T00:19:26.186Z,7.50
2023-01-01T00:21:56.844Z,7.23
2023-01-01T00:24:27.512Z,7.40
2023-01-01T00:26:58.255Z,6.93
2023-01-01T00:29:28.877Z,6.17
2023-01-01T00:31:59.560Z,5.83
2023-01-01T00:34:30.324Z,6.17
2023-01-01T00:37:01.163Z,6.33
2023-01-01T00:39:31.779Z,6.20
2023-01-01T00:42:02.576Z,5.73
2023-01-01T00:44:33.278Z,5.93
2023-01-01T00:47:03.953Z,5.73
2023-01-01T00:49:34.608Z,6.10
2023-01-01T00:52:05.531Z,6.17
2023-01-01T00:54:36.160Z,6.57
2023-01-01T00:57:06.977Z,6.20
2023-01-01T00:59:37.671Z,6.47
2023-01-01T01:02:08.621Z,6.03
2023-01-01T01:04:39.448Z,6.60
2023-01-01T01:07:10.789Z,5.80
2023-01-01T01:09:41.510Z,6.17
2023-01-01T01:12:17.924Z,6.70
2023-01-01T01:14:44.463Z,6.90
2023-01-01T01:17:15.225Z,6.20
2023-01-01T01:19:45.899Z,7.03
2023-01-01T01:24:54.602Z,7.17
2023-01-01T01:27:25.410Z,7.20
2023-01-01T01:29:56.373Z,6.70
2023-01-01T01:32:27.108Z,6.93
2023-01-01T01:34:57.860Z,6.53
2023-01-01T01:37:28.435Z,7.50
2023-01-01T01:39:59.156Z,5.60
2023-01-01T01:42:30.112Z,5.93
2023-01-01T01:45:02.643Z,6.00
2023-01-01T01:47:36.162Z,5.57
2023-01-01T01:50:12.615Z,5.77
2023-01-01T01:52:45.951Z,6.00
2023-01-01T01:55:16.768Z,5.50
2023-01-01T01:57:47.496Z,5.40
2023-01-01T02:00:20.010Z,5.33
2023-01-01T02:02:55.049Z,5.37
2023-01-01T02:05:26.946Z,5.40
2023-01-01T02:07:58.944Z,4.87
2023-01-01T02:10:30.871Z,5.47
2023-01-01T02:13:02.112Z,5.43
2023-01-01T02:15:35.723Z,5.43
2023-01-01T02:18:09.455Z,4.57
2023-01-01T02:20:45.808Z,5.23
2023-01-01T02:26:21.205Z,5.23
2023-01-01T02:28:59.867Z,4.90
2023-01-01T02:31:34.474Z,5.33
2023-01-01T02:34:08.104Z,5.13
2023-01-01T02:39:21.058Z,4.63
2023-01-01T02:41:54.915Z,5.60
2023-01-01T02:44:28.572Z,5.07
2023-01-01T02:49:39.467Z,5.57
2023-01-01T02:52:13.531Z,5.43
2023-01-01T02:54:48.203Z,4.77
2023-01-01T02:57:22.590Z,5.20
2023-01-01T03:00:17.233Z,4.80
2023-01-01T03:02:54.165Z,5.53
2023-01-01T03:05:29.605Z,4.40
2023-01-01T03:08:06.524Z,4.87
2023-01-01T03:10:42.500Z,5.20
2023-01-01T03:13:16.688Z,5.53
2023-01-01T03:15:50.916Z,5.40
2023-01-01T03:21:04.395Z,5.33
2023-01-01T03:23:38.648Z,5.30
2023-01-01T03:26:12.158Z,5.20
2023-01-01T03:28:46.231Z,5.60
2023-01-01T03:31:20.206Z,6.13
2023-01-01T03:33:54.087Z,6.30
2023-01-01T03:36:27.989Z,5.63
2023-01-01T03:39:02.217Z,6.53
2023-01-01T03:41:36.200Z,5.23
2023-01-01T03:44:10.798Z,6.17
2023-01-01T03:46:41.997Z,5.93
2023-01-01T03:49:15.263Z,5.33
2023-01-01T03:52:12.955Z,5.83
2023-01-01T03:54:52.369Z,5.77
2023-01-01T03:57:24.952Z,5.50
2023-01-01T04:00:05.267Z,5.50
2023-01-01T04:02:38.901Z,5.60
2023-01-01T04:05:11.311Z,5.50
2023-01-01T04:10:21.894Z,5.00
2023-01-01T04:12:54.031Z,5.30
2023-01-01T04:15:27.405Z,5.80
2023-01-01T04:17:58.090Z,5.63
2023-01-01T04:20:29.342Z,5.07
2023-01-01T04:23:00.847Z,5.10
2023-01-01T04:25:32.261Z,5.10
2023-01-01T04:28:03.782Z,4.77
2023-01-01T04:33:03.940Z,5.13
2023-01-01T04:35:34.572Z,4.63
2023-01-01T04:38:05.179Z,5.17
2023-01-01T04:40:35.829Z,4.87
2023-01-01T04:43:06.480Z,4.80
2023-01-01T04:45:37.121Z,4.27
2023-01-01T04:48:08.701Z,4.47
2023-01-01T04:50:39.439Z,4.87
2023-01-01T04:53:10.088Z,4.57
2023-01-01T04:55:40.777Z,4.80
2023-01-01T04:58:11.390Z,3.80
2023-01-01T05:00:43.245Z,4.50
2023-01-01T05:03:13.860Z,4.57
2023-01-01T05:05:48.081Z,5.13
2023-01-01T05:08:16.964Z,4.93
2023-01-01T05:10:47.704Z,4.87
2023-01-01T05:13:18.319Z,5.63
2023-01-01T05:15:48.990Z,4.57
2023-01-01T05:18:19.766Z,4.20
2023-01-01T05:20:50.511Z,4.50
2023-01-01T05:23:21.616Z,4.43
2023-01-01T05:25:52.292Z,4.70
2023-01-01T05:28:23.510Z,4.77
2023-01-01T05:30:55.213Z,4.63
2023-01-01T05:33:25.897Z,4.30
2023-01-01T05:35:57.142Z,4.70
2023-01-01T05:38:27.766Z,4.50
2023-01-01T05:40:58.936Z,4.63
2023-01-01T05:43:29.674Z,4.40
2023-01-01T05:46:05.072Z,4.17
2023-01-01T05:48:37.275Z,5.27
2023-01-01T05:51:10.601Z,3.97
2023-01-01T05:53:41.602Z,4.70
2023-01-01T05:56:12.747Z,4.63
2023-01-01T05:58:44.071Z,5.00
2023-01-01T06:01:17.734Z,4.13
2023-01-01T06:03:49.319Z,3.93
2023-01-01T06:06:21.643Z,4.80
2023-01-01T06:08:53.415Z,4.60
2023-01-01T06:14:04.516Z,4.27
2023-01-01T06:16:35.209Z,4.07
2023-01-01T06:19:05.963Z,4.70
2023-01-01T06:21:36.630Z,4.47
2023-01-01T06:24:11.699Z,3.60
2023-01-01T06:26:42.479Z,4.67
2023-01-01T06:29:13.218Z,4.83
2023-01-01T06:31:43.953Z,4.47
2023-01-01T06:34:14.612Z,5.03
2023-01-01T06:36:45.165Z,4.47
2023-01-01T06:39:15.777Z,4.77
2023-01-01T06:41:46.539Z,4.57
2023-01-01T06:44:17.159Z,4.43
2023-01-01T06:46:47.787Z,5.23
2023-01-01T06:49:18.355Z,4.47
2023-01-01T06:51:49.060Z,4.80
2023-01-01T06:54:19.708Z,4.67
2023-01-01T06:56:50.666Z,4.80
2023-01-01T06:59:21.340Z,4.50
2023-01-01T07:01:52.143Z,3.87
2023-01-01T07:04:23.181Z,4.27
2023-01-01T07:06:53.849Z,4.90
2023-01-01T07:09:24.543Z,4.80
2023-01-01T07:11:55.439Z,4.50
2023-01-01T07:14:26.130Z,4.67
2023-01-01T07:16:56.733Z,4.53
2023-01-01T07:19:27.508Z,4.10
2023-01-01T07:21:58.375Z,4.20
2023-01-01T07:24:28.992Z,4.63
2023-01-01T07:26:59.593Z,4.73
2023-01-01T07:29:30.228Z,4.93
2023-01-01T07:32:00.918Z,4.60
2023-01-01T07:34:31.533Z,4.73
2023-01-01T07:37:02.133Z,4.67
2023-01-01T07:39:32.733Z,4.00
2023-01-01T07:42:09.184Z,6.70
2023-01-01T07:44:35.797Z,4.53
2023-01-01T07:47:08.681Z,4.47
2023-01-01T07:52:18.638Z,4.50
2023-01-01T07:54:50.337Z,4.47
2023-01-01T07:57:21.212Z,4.40
2023-01-01T07:59:52.303Z,3.67
2023-01-01T08:02:23.418Z,5.20
2023-01-01T08:04:54.247Z,3.50
2023-01-01T08:07:25.034Z,4.60
2023-01-01T08:09:55.618Z,4.77
2023-01-01T08:12:26.362Z,4.00
2023-01-01T08:14:57.847Z,3.87
2023-01-01T08:17:28.527Z,4.43
2023-01-01T08:19:59.860Z,5.23
2023-01-01T08:22:31.320Z,4.40
2023-01-01T08:25:02.239Z,5.20
2023-01-01T08:27:33.280Z,4.70
2023-01-01T08:32:43.851Z,4.13
2023-01-01T08:35:14.897Z,4.97
2023-01-01T08:37:46.361Z,4.43
2023-01-01T08:40:18.229Z,4.80
2023-01-01T08:42:48.946Z,3.93
2023-01-01T08:45:19.967Z,5.40
2023-01-01T08:47:50.680Z,5.03
2023-01-01T08:50:21.443Z,4.20
2023-01-01T08:52:52.185Z,4.20
2023-01-01T08:55:22.824Z,5.10
2023-01-01T08:57:53.424Z,6.20
2023-01-01T09:00:24.401Z,5.70
2023-01-01T09:02:55.298Z,6.30
2023-01-01T09:05:26.016Z,5.60
2023-01-01T09:07:56.652Z,4.53
2023-01-01T09:10:27.369Z,4.57
2023-01-01T09:12:57.966Z,4.33
2023-01-01T09:15:28.881Z,3.83
2023-01-01T09:17:59.589Z,4.40
2023-01-01T09:20:30.344Z,4.63
2023-01-01T09:23:05.676Z,4.80
2023-01-01T09:25:34.015Z,4.27
2023-01-01T09:28:06.791Z,3.70
2023-01-01T09:30:37.780Z,3.70
2023-01-01T09:33:08.459Z,3.57
2023-01-01T09:35:39.517Z,3.40
2023-01-01T09:38:10.354Z,4.13
2023-01-01T09:40:51.095Z,3.53
2023-01-01T09:43:25.595Z,4.00
2023-01-01T09:46:02.130Z,3.87
2023-01-01T09:51:13.838Z,3.60
2023-01-01T09:53:47.961Z,3.90
2023-01-01T09:56:21.283Z,3.27
2023-01-01T09:58:52.074Z,3.10
2023-01-01T10:01:28.551Z,3.53
2023-01-01T10:04:03.171Z,3.87
2023-01-01T10:06:36.494Z,4.10
2023-01-01T10:09:13.477Z,3.13
2023-01-01T10:14:30.802Z,3.40
2023-01-01T10:17:04.069Z,3.40
2023-01-01T10:19:37.824Z,2.87
2023-01-01T10:24:50.925Z,3.03
2023-01-01T10:27:30.181Z,3.33
2023-01-01T10:30:05.345Z,3.90
2023-01-01T10:32:39.529Z,3.73
2023-01-01T10:35:16.706Z,3.37
2023-01-01T10:37:50.170Z,3.53
2023-01-01T10:40:24.003Z,3.10
2023-01-01T10:42:56.135Z,3.37
2023-01-01T10:45:31.917Z,2.73
2023-01-01T10:48:20.861Z,2.90
2023-01-01T10:50:54.730Z,3.27
2023-01-01T10:53:31.257Z,3.37
2023-01-01T10:56:12.200Z,2.97
2023-01-01T10:58:48.227Z,2.60
2023-01-01T11:01:24.880Z,3.20
2023-01-01T11:03:59.041Z,3.17
2023-01-01T11:06:31.794Z,3.00
2023-01-01T11:09:04.857Z,3.27
2023-01-01T11:11:39.501Z,2.80
2023-01-01T11:14:18.677Z,3.10
2023-01-01T11:16:49.827Z,3.50
2023-01-01T11:19:24.304Z,3.17
2023-01-01T11:21:55.105Z,2.97
2023-01-01T11:24:27.736Z,2.17
2023-01-01T11:29:54.981Z,2.60
2023-01-01T11:32:28.726Z,2.27
2023-01-01T11:35:02.758Z,2.37
2023-01-01T11:37:36.278Z,2.67
2023-01-01T11:40:10.689Z,2.83
2023-01-01T11:42:44.340Z,2.70
2023-01-01T11:47:59.475Z,2.27
2023-01-01T11:50:34.199Z,2.80
2023-01-01T11:53:27.451Z,2.60
2023-01-01T11:56:02.248Z,2.60
2023-01-01T11:58:36.353Z,2.67
2023-01-01T12:01:11.108Z,2.70
2023-01-01T12:03:45.351Z,2.67
2023-01-01T12:09:02.221Z,2.80
2023-01-01T12:11:35.867Z,2.77
2023-01-01T12:14:12.098Z,2.40
2023-01-01T12:16:48.517Z,2.27
2023-01-01T12:19:22.592Z,2.40
2023-01-01T12:21:56.484Z,2.70
2023-01-01T12:24:30.216Z,2.43
2023-01-01T12:27:10.951Z,3.00
2023-01-01T12:29:52.476Z,3.00
2023-01-01T12:32:26.434Z,2.77
2023-01-01T12:35:00.470Z,2.50
2023-01-01T12:40:38.887Z,2.73
2023-01-01T12:43:13.124Z,2.50
2023-01-01T12:46:36.243Z,2.57
2023-01-01T12:49:44.696Z,2.77
2023-01-01T12:52:26.076Z,2.90
2023-01-01T12:55:24.912Z,2.60
2023-01-01T12:57:59.880Z,2.27
2023-01-01T13:00:32.316Z,2.83
2023-01-01T13:03:08.100Z,2.50
2023-01-01T13:05:42.244Z,2.83
2023-01-01T13:08:13.703Z,2.73
2023-01-01T13:10:47.067Z,2.10
2023-01-01T13:13:18.579Z,2.60
2023-01-01T13:15:53.980Z,2.63
2023-01-01T13:18:28.240Z,2.70
2023-01-01T13:21:08.869Z,2.57
2023-01-01T13:23:54.026Z,2.40
2023-01-01T13:26:39.647Z,2.50
2023-01-01T13:29:34.644Z,2.47
2023-01-01T13:32:16.441Z,2.80
2023-01-01T13:35:17.656Z,2.83
2023-01-01T13:37:49.915Z,2.33
2023-01-01T13:40:36.732Z,2.10
2023-01-01T13:43:24.733Z,2.40
2023-01-01T13:46:13.778Z,2.53
2023-01-01T13:48:42.922Z,2.80
2023-01-01T13:52:04.202Z,2.57
2023-01-01T13:54:24.535Z,2.50
2023-01-01T13:56:55.832Z,2.80
2023-01-01T13:59:55.359Z,2.60
2023-01-01T14:02:29.919Z,2.93
2023-01-01T14:05:04.493Z,2.57
2023-01-01T14:07:55.422Z,2.33
2023-01-01T14:10:23.750Z,2.77
2023-01-01T14:12:56.418Z,2.20
2023-01-01T14:15:30.745Z,3.43
2023-01-01T14:18:03.426Z,2.80
2023-01-01T14:20:38.439Z,2.73
2023-01-01T14:23:12.723Z,2.67
2023-01-01T14:25:46.351Z,2.87
2023-01-01T14:28:21.005Z,2.90
2023-01-01T14:30:54.053Z,2.90
2023-01-01T14:33:27.323Z,3.03
2023-01-01T14:36:00.460Z,2.60
2023-01-01T14:38:32.547Z,2.90
2023-01-01T14:41:11.247Z,3.00
2023-01-01T14:43:44.560Z,2.70
2023-01-01T14:46:20.235Z,3.10
2023-01-01T14:48:54.439Z,2.93
2023-01-01T14:51:27.191Z,3.47
2023-01-01T14:54:00.448Z,2.83
2023-01-01T14:56:33.380Z,3.30
2023-01-01T14:59:09.872Z,3.20
2023-01-01T15:01:42.961Z,2.90
2023-01-01T15:04:21.325Z,3.00
2023-01-01T15:06:57.587Z,3.23
2023-01-01T15:09:47.465Z,3.07
2023-01-01T15:12:20.738Z,3.00
2023-01-01T15:14:53.875Z,3.20
2023-01-01T15:17:26.670Z,3.00
2023-01-01T15:20:19.062Z,3.00
2023-01-01T15:25:32.263Z,3.00
2023-01-01T15:28:04.463Z,3.30
2023-01-01T15:30:37.753Z,3.20
2023-01-01T15:33:16.460Z,3.13
2023-01-01T15:35:51.125Z,3.13
2023-01-01T15:38:24.955Z,2.97
2023-01-01T15:40:55.827Z,3.20
2023-01-01T15:43:29.852Z,4.10
2023-01-01T15:46:03.682Z,3.40
2023-01-01T15:48:38.940Z,2.90
2023-01-01T15:51:16.057Z,3.50
2023-01-01T15:53:54.325Z,3.93
2023-01-01T15:56:35.398Z,4.17
2023-01-01T15:59:09.765Z,3.97
2023-01-01T16:01:42.687Z,3.23
2023-01-01T16:04:22.247Z,3.17
2023-01-01T16:06:52.280Z,3.47
2023-01-01T16:09:23.901Z,3.67
2023-01-01T16:11:55.891Z,3.20
2023-01-01T16:14:26.939Z,3.70
2023-01-01T16:17:01.247Z,3.27
2023-01-01T16:19:33.979Z,3.53
2023-01-01T16:22:04.847Z,3.90
2023-01-01T16:24:37.059Z,4.80
2023-01-01T16:27:07.829Z,3.40
2023-01-01T16:29:40.316Z,3.93
2023-01-01T16:32:17.199Z,3.83
2023-01-01T16:34:47.939Z,3.97
2023-01-01T16:37:22.302Z,3.53
2023-01-01T16:39:52.949Z,3.67
2023-01-01T16:42:23.690Z,3.53
2023-01-01T16:44:54.934Z,4.37
2023-01-01T16:47:25.693Z,3.53
2023-01-01T16:49:58.003Z,4.23
2023-01-01T16:52:33.508Z,4.53
2023-01-01T16:55:02.542Z,4.77
2023-01-01T16:57:33.539Z,5.67
2023-01-01T17:00:04.969Z,4.53
2023-01-01T17:02:36.221Z,4.30
2023-01-01T17:05:08.123Z,4.37
2023-01-01T17:07:39.151Z,4.40
2023-01-01T17:10:11.637Z,4.43
2023-01-01T17:12:42.826Z,5.10
2023-01-01T17:15:14.336Z,4.60
2023-01-01T17:17:45.277Z,4.53
2023-01-01T17:20:16.275Z,4.60
2023-01-01T17:22:47.012Z,4.50
2023-01-01T17:25:18.542Z,5.30
2023-01-01T17:27:49.507Z,4.37
2023-01-01T17:30:20.499Z,4.10
2023-01-01T17:32:51.207Z,4.63
2023-01-01T17:35:22.228Z,4.73
2023-01-01T17:37:53.391Z,4.37
2023-01-01T17:40:24.572Z,4.70
2023-01-01T17:42:56.403Z,4.40
2023-01-01T17:45:27.239Z,4.77
2023-01-01T17:47:58.017Z,5.23
2023-01-01T17:50:31.108Z,4.83
2023-01-01T17:53:01.846Z,4.80
2023-01-01T17:55:32.673Z,5.43
2023-01-01T17:58:03.796Z,5.77
2023-01-01T18:00:36.076Z,5.50
2023-01-01T18:03:07.018Z,5.70
2023-01-01T18:05:38.324Z,5.40
2023-01-01T18:08:09.465Z,5.43
2023-01-01T18:10:40.841Z,4.93
2023-01-01T18:13:11.810Z,5.03
2023-01-01T18:15:42.682Z,4.70
2023-01-01T18:18:13.564Z,5.63
2023-01-01T18:20:44.406Z,4.83
2023-01-01T18:23:15.552Z,4.97
2023-01-01T18:25:46.575Z,4.60
2023-01-01T18:28:17.548Z,5.73
2023-01-01T18:30:48.922Z,5.33
2023-01-01T18:33:19.631Z,5.07
2023-01-01T18:35:50.365Z,5.87
2023-01-01T18:38:22.211Z,5.53
2023-01-01T18:40:56.358Z,6.73
2023-01-01T18:43:27.857Z,5.43
2023-01-01T18:45:59.521Z,5.57
2023-01-01T18:48:30.568Z,6.10
2023-01-01T18:51:01.272Z,5.27
2023-01-01T18:53:33.193Z,6.47
2023-01-01T18:56:09.312Z,5.97
2023-01-01T18:58:41.617Z,5.10
2023-01-01T19:01:19.329Z,5.63
2023-01-01T19:03:52.608Z,5.47
2023-01-01T19:06:29.853Z,5.83
2023-01-01T19:09:05.616Z,4.60
2023-01-01T19:11:38.877Z,4.83
2023-01-01T19:14:16.098Z,4.50
2023-01-01T19:16:47.829Z,5.40
2023-01-01T19:19:21.542Z,5.17
2023-01-01T19:21:54.860Z,4.87
2023-01-01T19:24:27.875Z,5.10
2023-01-01T19:27:01.441Z,5.63
2023-01-01T19:29:32.737Z,4.40
2023-01-01T19:32:03.499Z,5.13
2023-01-01T19:34:36.099Z,3.90
2023-01-01T19:37:06.733Z,4.67
2023-01-01T19:39:39.034Z,4.90
2023-01-01T19:42:10.877Z,4.70
2023-01-01T19:44:41.640Z,5.03
2023-01-01T19:47:12.392Z,4.87
2023-01-01T19:49:43.108Z,4.53
2023-01-01T19:52:15.122Z,5.40
2023-01-01T19:54:46.625Z,4.77
2023-01-01T19:57:19.071Z,4.67
2023-01-01T19:59:50.488Z,4.60
2023-01-01T20:02:48.500Z,4.40
2023-01-01T20:04:54.125Z,4.97
2023-01-01T20:07:25.791Z,4.60
2023-01-01T20:09:57.088Z,4.23
2023-01-01T20:12:27.942Z,4.20
2023-01-01T20:14:58.827Z,4.50
2023-01-01T20:17:30.975Z,4.70
2023-01-01T20:20:02.608Z,3.90
2023-01-01T20:22:33.453Z,4.00
2023-01-01T20:25:04.786Z,4.60
2023-01-01T20:27:36.252Z,4.50
2023-01-01T20:30:10.396Z,4.87
2023-01-01T20:32:41.180Z,4.90
2023-01-01T20:35:12.195Z,4.27
2023-01-01T20:37:42.959Z,4.20
2023-01-01T20:40:14.367Z,4.63
2023-01-01T20:42:46.591Z,5.03
2023-01-01T20:45:17.536Z,3.77
2023-01-01T20:47:48.388Z,3.57
2023-01-01T20:50:19.509Z,3.70
2023-01-01T20:52:51.009Z,3.23
2023-01-01T20:55:21.832Z,3.50
2023-01-01T20:57:52.602Z,3.50
2023-01-01T21:00:23.747Z,3.40
2023-01-01T21:02:54.521Z,3.70
2023-01-01T21:05:25.374Z,3.83
2023-01-01T21:07:56.256Z,3.73
2023-01-01T21:13:07.573Z,3.33
2023-01-01T21:15:39.310Z,3.87
2023-01-01T21:18:13.531Z,3.90
2023-01-01T21:20:46.320Z,4.47
2023-01-01T21:23:19.885Z,4.20
2023-01-01T21:25:52.933Z,4.50
2023-01-01T21:28:23.853Z,4.27
2023-01-01T21:30:57.232Z,3.80
2023-01-01T21:33:30.634Z,4.27
2023-01-01T21:36:05.606Z,3.40
2023-01-01T21:38:36.847Z,4.27
2023-01-01T21:41:16.168Z,3.50
2023-01-01T21:43:50.285Z,3.53
2023-01-01T21:46:38.306Z,3.10
2023-01-01T21:49:18.330Z,3.67
2023-01-01T21:51:53.584Z,3.70
2023-01-01T21:54:28.501Z,3.40
2023-01-01T21:57:01.847Z,3.23
2023-01-01T21:59:38.978Z,3.37
2023-01-01T22:02:33.930Z,3.50
2023-01-01T22:05:30.156Z,3.20
2023-01-01T22:07:59.983Z,3.20
2023-01-01T22:10:35.057Z,3.77
2023-01-01T22:13:11.556Z,4.00
2023-01-01T22:15:43.960Z,3.50
2023-01-01T22:18:27.227Z,4.00
2023-01-01T22:21:00.543Z,3.23
2023-01-01T22:23:42.338Z,3.40
2023-01-01T22:26:20.399Z,3.07
2023-01-01T22:28:54.049Z,3.40
2023-01-01T22:31:28.104Z,3.37
2023-01-01T22:34:00.543Z,4.23
2023-01-01T22:36:34.763Z,2.80
2023-01-01T22:39:09.178Z,3.60
2023-01-01T22:41:39.876Z,4.70
2023-01-01T22:44:12.751Z,3.87
2023-01-01T22:46:43.888Z,3.83
2023-01-01T22:49:18.740Z,3.77
2023-01-01T22:51:54.739Z,3.63
2023-01-01T22:54:25.504Z,3.63
2023-01-01T22:56:56.101Z,3.80
2023-01-01T22:59:26.725Z,3.50
2023-01-01T23:01:57.325Z,3.67
2023-01-01T23:04:27.957Z,4.30
2023-01-01T23:06:58.740Z,3.40
2023-01-01T23:09:29.367Z,4.53
2023-01-01T23:12:00.349Z,4.47
2023-01-01T23:14:48.469Z,3.60
2023-01-01T23:17:19.124Z,3.67
2023-01-01T23:19:49.801Z,3.83
2023-01-01T23:22:21.925Z,4.10
2023-01-01T23:24:52.580Z,4.00
2023-01-01T23:27:23.642Z,4.93
2023-01-01T23:29:55.974Z,3.43
2023-01-01T23:32:26.832Z,3.73
2023-01-01T23:34:58.037Z,4.30
2023-01-01T23:37:30.168Z,3.73
2023-01-01T23:40:00.825Z,3.90
2023-01-01T23:42:31.485Z,3.40
2023-01-01T23:45:02.060Z,3.97
2023-01-01T23:47:33.485Z,3.60
2023-01-01T23:50:04.481Z,3.90
2023-01-01T23:52:35.911Z,3.47
2023-01-01T23:55:08.168Z,4.00
2023-01-01T23:57:38.802Z,4.07
